sensor_id;sensor_type;location;lat;lon;timestamp;P1;durP1;ratioP1;P2;durP2;ratioP2
23634;SDS011;11994;51.038;16.974;2022-12-17T00:01:58;131.80;;;78.57;;
23634;SDS011;11994;51.038;16.974;2022-12-17T00:04:43;136.80;;;78.70;;
23634;SDS011;11994;51.038;16.974;2022-12-17T00:07:28;133.27;;;79.35;;
23634;SDS011;11994;51.038;16.974;2022-12-17T00:10:12;131.52;;;77.42;;
23634;SDS011;11994;51.038;16.974;2022-12-17T00:12:57;142.62;;;83.00;;
23634;SDS011;11994;51.038;16.974;2022-12-17T00:15:41;143.40;;;85.62;;
23634;SDS011;11994;51.038;16.974;2022-12-17T00:18:26;141.95;;;83.30;;
23634;SDS011;11994;51.038;16.974;2022-12-17T00:21:10;141.77;;;84.60;;
23634;SDS011;11994;51.038;16.974;2022-12-17T00:23:55;138.30;;;83.52;;
23634;SDS011;11994;51.038;16.974;2022-12-17T00:26:40;139.30;;;83.20;;
23634;SDS011;11994;51.038;16.974;2022-12-17T00:29:24;137.55;;;80.92;;
23634;SDS011;11994;51.038;16.974;2022-12-17T00:32:09;139.12;;;81.57;;
23634;SDS011;11994;51.038;16.974;2022-12-17T00:34:53;139.65;;;86.05;;
23634;SDS011;11994;51.038;16.974;2022-12-17T00:37:38;145.62;;;84.25;;
23634;SDS011;11994;51.038;16.974;2022-12-17T00:40:11;144.13;;;84.42;;
23634;SDS011;11994;51.038;16.974;2022-12-17T00:43:04;144.28;;;83.97;;
23634;SDS011;11994;51.038;16.974;2022-12-17T00:45:51;150.95;;;85.45;;
23634;SDS011;11994;51.038;16.974;2022-12-17T00:48:36;151.42;;;87.75;;
23634;SDS011;11994;51.038;16.974;2022-12-17T00:51:21;147.72;;;87.02;;
23634;SDS011;11994;51.038;16.974;2022-12-17T00:54:06;145.68;;;87.78;;
23634;SDS011;11994;51.038;16.974;2022-12-17T00:56:50;149.00;;;87.80;;
23634;SDS011;11994;51.038;16.974;2022-12-17T00:59:35;144.50;;;88.55;;
23634;SDS011;11994;51.038;16.974;2022-12-17T01:02:20;147.80;;;88.22;;
23634;SDS011;11994;51.038;16.974;2022-12-17T01:05:05;151.65;;;85.42;;
23634;SDS011;11994;51.038;16.974;2022-12-17T01:07:51;149.38;;;88.33;;
23634;SDS011;11994;51.038;16.974;2022-12-17T01:10:35;155.80;;;89.50;;
23634;SDS011;11994;51.038;16.974;2022-12-17T01:13:21;147.60;;;87.70;;
23634;SDS011;11994;51.038;16.974;2022-12-17T01:16:06;151.55;;;89.07;;
23634;SDS011;11994;51.038;16.974;2022-12-17T01:18:54;147.32;;;85.92;;
23634;SDS011;11994;51.038;16.974;2022-12-17T01:21:39;151.82;;;89.20;;
23634;SDS011;11994;51.038;16.974;2022-12-17T01:24:24;145.68;;;87.47;;
23634;SDS011;11994;51.038;16.974;2022-12-17T01:27:09;150.87;;;91.20;;
23634;SDS011;11994;51.038;16.974;2022-12-17T01:29:53;157.22;;;89.00;;
23634;SDS011;11994;51.038;16.974;2022-12-17T01:32:38;153.78;;;91.05;;
23634;SDS011;11994;51.038;16.974;2022-12-17T01:35:24;154.23;;;88.15;;
23634;SDS011;11994;51.038;16.974;2022-12-17T01:38:12;152.60;;;88.50;;
23634;SDS011;11994;51.038;16.974;2022-12-17T01:40:59;149.40;;;85.80;;
23634;SDS011;11994;51.038;16.974;2022-12-17T01:43:43;153.30;;;87.95;;
23634;SDS011;11994;51.038;16.974;2022-12-17T01:46:29;153.95;;;88.50;;
23634;SDS011;11994;51.038;16.974;2022-12-17T01:49:17;156.82;;;87.50;;
23634;SDS011;11994;51.038;16.974;2022-12-17T01:52:05;142.40;;;84.07;;
23634;SDS011;11994;51.038;16.974;2022-12-17T01:54:50;149.23;;;86.47;;
23634;SDS011;11994;51.038;16.974;2022-12-17T01:57:34;151.32;;;87.80;;
23634;SDS011;11994;51.038;16.974;2022-12-17T02:00:19;163.62;;;87.08;;
23634;SDS011;11994;51.038;16.974;2022-12-17T02:03:10;151.82;;;87.62;;
23634;SDS011;11994;51.038;16.974;2022-12-17T02:06:01;154.07;;;88.47;;
23634;SDS011;11994;51.038;16.974;2022-12-17T02:12:05;149.75;;;85.53;;
23634;SDS011;11994;51.038;16.974;2022-12-17T02:15:06;154.20;;;84.60;;
23634;SDS011;11994;51.038;16.974;2022-12-17T02:17:54;146.23;;;83.57;;
23634;SDS011;11994;51.038;16.974;2022-12-17T02:20:43;155.12;;;86.15;;
23634;SDS011;11994;51.038;16.974;2022-12-17T02:23:36;148.30;;;83.78;;
23634;SDS011;11994;51.038;16.974;2022-12-17T02:26:43;156.47;;;84.03;;
23634;SDS011;11994;51.038;16.974;2022-12-17T02:29:46;149.27;;;85.83;;
23634;SDS011;11994;51.038;16.974;2022-12-17T02:32:32;146.35;;;81.00;;
23634;SDS011;11994;51.038;16.974;2022-12-17T02:35:24;146.65;;;83.62;;
23634;SDS011;11994;51.038;16.974;2022-12-17T02:38:26;148.57;;;85.28;;
23634;SDS011;11994;51.038;16.974;2022-12-17T02:41:17;143.43;;;81.95;;
23634;SDS011;11994;51.038;16.974;2022-12-17T02:44:05;139.32;;;78.97;;
23634;SDS011;11994;51.038;16.974;2022-12-17T02:46:52;153.75;;;85.42;;
23634;SDS011;11994;51.038;16.974;2022-12-17T02:49:39;152.50;;;84.40;;
23634;SDS011;11994;51.038;16.974;2022-12-17T02:52:23;153.53;;;86.20;;
23634;SDS011;11994;51.038;16.974;2022-12-17T02:55:09;153.65;;;84.83;;
23634;SDS011;11994;51.038;16.974;2022-12-17T02:57:54;143.78;;;84.13;;
23634;SDS011;11994;51.038;16.974;2022-12-17T03:00:39;151.80;;;84.55;;
23634;SDS011;11994;51.038;16.974;2022-12-17T03:03:23;155.55;;;84.20;;
23634;SDS011;11994;51.038;16.974;2022-12-17T03:06:08;149.60;;;83.82;;
23634;SDS011;11994;51.038;16.974;2022-12-17T03:08:52;156.25;;;86.97;;
23634;SDS011;11994;51.038;16.974;2022-12-17T03:11:37;151.12;;;84.03;;
23634;SDS011;11994;51.038;16.974;2022-12-17T03:14:21;150.72;;;85.10;;
23634;SDS011;11994;51.038;16.974;2022-12-17T03:17:06;149.00;;;84.55;;
23634;SDS011;11994;51.038;16.974;2022-12-17T03:19:51;143.90;;;82.25;;
23634;SDS011;11994;51.038;16.974;2022-12-17T03:22:35;146.40;;;81.28;;
23634;SDS011;11994;51.038;16.974;2022-12-17T03:25:20;157.07;;;84.67;;
23634;SDS011;11994;51.038;16.974;2022-12-17T03:28:05;150.85;;;83.52;;
23634;SDS011;11994;51.038;16.974;2022-12-17T03:30:52;146.90;;;82.15;;
23634;SDS011;11994;51.038;16.974;2022-12-17T03:33:37;155.10;;;83.65;;
23634;SDS011;11994;51.038;16.974;2022-12-17T03:36:22;147.72;;;82.02;;
23634;SDS011;11994;51.038;16.974;2022-12-17T03:39:06;152.38;;;83.03;;
23634;SDS011;11994;51.038;16.974;2022-12-17T03:41:51;139.97;;;80.25;;
23634;SDS011;11994;51.038;16.974;2022-12-17T03:44:36;147.47;;;83.27;;
23634;SDS011;11994;51.038;16.974;2022-12-17T03:47:20;146.10;;;81.82;;
23634;SDS011;11994;51.038;16.974;2022-12-17T03:50:05;160.97;;;84.52;;
23634;SDS011;11994;51.038;16.974;2022-12-17T03:52:50;144.57;;;80.77;;
23634;SDS011;11994;51.038;16.974;2022-12-17T03:55:18;144.15;;;80.55;;
23634;SDS011;11994;51.038;16.974;2022-12-17T03:58:04;147.13;;;80.55;;
23634;SDS011;11994;51.038;16.974;2022-12-17T04:00:49;141.53;;;78.52;;
23634;SDS011;11994;51.038;16.974;2022-12-17T04:03:33;151.78;;;79.82;;
23634;SDS011;11994;51.038;16.974;2022-12-17T04:06:18;138.65;;;79.45;;
23634;SDS011;11994;51.038;16.974;2022-12-17T04:09:02;143.60;;;79.72;;
23634;SDS011;11994;51.038;16.974;2022-12-17T04:11:47;141.80;;;80.20;;
23634;SDS011;11994;51.038;16.974;2022-12-17T04:14:32;144.40;;;79.35;;
23634;SDS011;11994;51.038;16.974;2022-12-17T04:17:16;141.97;;;79.10;;
23634;SDS011;11994;51.038;16.974;2022-12-17T04:20:01;142.13;;;76.55;;
23634;SDS011;11994;51.038;16.974;2022-12-17T04:22:45;143.65;;;81.10;;
23634;SDS011;11994;51.038;16.974;2022-12-17T04:25:30;151.53;;;82.53;;
23634;SDS011;11994;51.038;16.974;2022-12-17T04:28:14;142.10;;;81.00;;
23634;SDS011;11994;51.038;16.974;2022-12-17T04:30:59;151.80;;;84.85;;
23634;SDS011;11994;51.038;16.974;2022-12-17T04:33:43;151.93;;;82.80;;
23634;SDS011;11994;51.038;16.974;2022-12-17T04:36:27;150.82;;;80.42;;
23634;SDS011;11994;51.038;16.974;2022-12-17T04:39:12;149.38;;;82.25;;
23634;SDS011;11994;51.038;16.974;2022-12-17T04:41:57;144.05;;;81.37;;
23634;SDS011;11994;51.038;16.974;2022-12-17T04:44:41;139.22;;;78.45;;
23634;SDS011;11994;51.038;16.974;2022-12-17T04:47:26;148.65;;;81.60;;
23634;SDS011;11994;51.038;16.974;2022-12-17T04:50:11;140.62;;;78.33;;
23634;SDS011;11994;51.038;16.974;2022-12-17T04:52:59;144.93;;;78.40;;
23634;SDS011;11994;51.038;16.974;2022-12-17T04:55:47;146.70;;;79.03;;
23634;SDS011;11994;51.038;16.974;2022-12-17T04:58:32;140.20;;;77.27;;
23634;SDS011;11994;51.038;16.974;2022-12-17T05:01:17;135.37;;;77.45;;
23634;SDS011;11994;51.038;16.974;2022-12-17T05:03:45;149.38;;;77.70;;
23634;SDS011;11994;51.038;16.974;2022-12-17T05:06:30;141.05;;;79.07;;
23634;SDS011;11994;51.038;16.974;2022-12-17T05:09:14;137.43;;;75.30;;
23634;SDS011;11994;51.038;16.974;2022-12-17T05:11:59;141.28;;;76.40;;
23634;SDS011;11994;51.038;16.974;2022-12-17T05:14:43;137.47;;;74.17;;
23634;SDS011;11994;51.038;16.974;2022-12-17T05:17:28;138.82;;;75.03;;
23634;SDS011;11994;51.038;16.974;2022-12-17T05:20:12;136.47;;;72.32;;
23634;SDS011;11994;51.038;16.974;2022-12-17T05:23:02;145.57;;;74.55;;
23634;SDS011;11994;51.038;16.974;2022-12-17T05:28:32;135.48;;;68.72;;
23634;SDS011;11994;51.038;16.974;2022-12-17T05:31:17;134.07;;;70.78;;
23634;SDS011;11994;51.038;16.974;2022-12-17T05:34:01;139.43;;;73.55;;
23634;SDS011;11994;51.038;16.974;2022-12-17T05:36:46;136.18;;;69.62;;
23634;SDS011;11994;51.038;16.974;2022-12-17T05:39:31;134.35;;;69.90;;
23634;SDS011;11994;51.038;16.974;2022-12-17T05:42:15;131.82;;;70.62;;
23634;SDS011;11994;51.038;16.974;2022-12-17T05:45:00;125.27;;;66.62;;
23634;SDS011;11994;51.038;16.974;2022-12-17T05:47:44;123.02;;;65.85;;
23634;SDS011;11994;51.038;16.974;2022-12-17T05:50:12;131.60;;;67.58;;
23634;SDS011;11994;51.038;16.974;2022-12-17T05:53:01;121.10;;;65.52;;
23634;SDS011;11994;51.038;16.974;2022-12-17T05:55:50;128.70;;;66.07;;
23634;SDS011;11994;51.038;16.974;2022-12-17T05:58:35;117.33;;;62.95;;
23634;SDS011;11994;51.038;16.974;2022-12-17T06:01:20;127.25;;;64.80;;
23634;SDS011;11994;51.038;16.974;2022-12-17T06:04:05;118.77;;;65.08;;
23634;SDS011;11994;51.038;16.974;2022-12-17T06:06:49;120.97;;;65.67;;
23634;SDS011;11994;51.038;16.974;2022-12-17T06:09:33;118.80;;;64.92;;
23634;SDS011;11994;51.038;16.974;2022-12-17T06:12:18;118.05;;;62.88;;
23634;SDS011;11994;51.038;16.974;2022-12-17T06:15:03;115.00;;;59.38;;
23634;SDS011;11994;51.038;16.974;2022-12-17T06:17:51;119.13;;;61.08;;
23634;SDS011;11994;51.038;16.974;2022-12-17T06:20:37;113.75;;;60.88;;
23634;SDS011;11994;51.038;16.974;2022-12-17T06:23:22;115.05;;;61.18;;
23634;SDS011;11994;51.038;16.974;2022-12-17T06:26:06;114.08;;;60.65;;
23634;SDS011;11994;51.038;16.974;2022-12-17T06:28:52;112.92;;;70.30;;
23634;SDS011;11994;51.038;16.974;2022-12-17T06:31:36;107.20;;;59.27;;
23634;SDS011;11994;51.038;16.974;2022-12-17T06:34:21;111.28;;;59.88;;
23634;SDS011;11994;51.038;16.974;2022-12-17T06:37:06;107.15;;;58.23;;
23634;SDS011;11994;51.038;16.974;2022-12-17T06:39:50;109.50;;;56.83;;
23634;SDS011;11994;51.038;16.974;2022-12-17T06:42:35;105.07;;;56.92;;
23634;SDS011;11994;51.038;16.974;2022-12-17T06:45:19;99.17;;;52.73;;
23634;SDS011;11994;51.038;16.974;2022-12-17T06:48:05;106.78;;;55.28;;
23634;SDS011;11994;51.038;16.974;2022-12-17T06:50:55;103.32;;;54.18;;
23634;SDS011;11994;51.038;16.974;2022-12-17T06:53:40;107.32;;;56.95;;
23634;SDS011;11994;51.038;16.974;2022-12-17T06:56:25;107.60;;;55.78;;
23634;SDS011;11994;51.038;16.974;2022-12-17T06:59:10;106.83;;;58.60;;
23634;SDS011;11994;51.038;16.974;2022-12-17T07:01:55;102.75;;;54.83;;
23634;SDS011;11994;51.038;16.974;2022-12-17T07:04:39;104.35;;;57.45;;
23634;SDS011;11994;51.038;16.974;2022-12-17T07:07:24;102.50;;;55.65;;
23634;SDS011;11994;51.038;16.974;2022-12-17T07:10:08;107.80;;;56.18;;
23634;SDS011;11994;51.038;16.974;2022-12-17T07:12:53;102.80;;;55.70;;
23634;SDS011;11994;51.038;16.974;2022-12-17T07:15:38;105.65;;;57.27;;
23634;SDS011;11994;51.038;16.974;2022-12-17T07:18:22;97.50;;;54.48;;
23634;SDS011;11994;51.038;16.974;2022-12-17T07:21:07;97.10;;;54.90;;
23634;SDS011;11994;51.038;16.974;2022-12-17T07:23:51;102.35;;;54.50;;
23634;SDS011;11994;51.038;16.974;2022-12-17T07:26:36;98.70;;;55.28;;
23634;SDS011;11994;51.038;16.974;2022-12-17T07:29:21;93.17;;;52.85;;
23634;SDS011;11994;51.038;16.974;2022-12-17T07:32:05;88.72;;;49.70;;
23634;SDS011;11994;51.038;16.974;2022-12-17T07:34:49;87.42;;;48.50;;
23634;SDS011;11994;51.038;16.974;2022-12-17T07:37:34;85.28;;;48.40;;
23634;SDS011;11994;51.038;16.974;2022-12-17T07:40:19;91.72;;;50.43;;
23634;SDS011;11994;51.038;16.974;2022-12-17T07:43:11;97.15;;;52.73;;
23634;SDS011;11994;51.038;16.974;2022-12-17T07:45:57;88.40;;;49.90;;
23634;SDS011;11994;51.038;16.974;2022-12-17T07:48:41;99.20;;;53.38;;
23634;SDS011;11994;51.038;16.974;2022-12-17T07:51:26;95.60;;;54.58;;
23634;SDS011;11994;51.038;16.974;2022-12-17T07:54:03;98.33;;;51.13;;
23634;SDS011;11994;51.038;16.974;2022-12-17T07:56:47;95.15;;;52.53;;
23634;SDS011;11994;51.038;16.974;2022-12-17T07:59:32;95.70;;;52.08;;
23634;SDS011;11994;51.038;16.974;2022-12-17T08:02:16;90.65;;;49.25;;
23634;SDS011;11994;51.038;16.974;2022-12-17T08:05:01;95.57;;;53.28;;
23634;SDS011;11994;51.038;16.974;2022-12-17T08:07:45;91.78;;;49.53;;
23634;SDS011;11994;51.038;16.974;2022-12-17T08:10:30;94.52;;;52.73;;
23634;SDS011;11994;51.038;16.974;2022-12-17T08:13:14;98.33;;;52.17;;
23634;SDS011;11994;51.038;16.974;2022-12-17T08:15:59;93.95;;;51.73;;
23634;SDS011;11994;51.038;16.974;2022-12-17T08:18:43;90.95;;;51.63;;
23634;SDS011;11994;51.038;16.974;2022-12-17T08:21:28;95.62;;;52.25;;
23634;SDS011;11994;51.038;16.974;2022-12-17T08:24:12;98.67;;;53.15;;
23634;SDS011;11994;51.038;16.974;2022-12-17T08:26:57;95.00;;;52.73;;
23634;SDS011;11994;51.038;16.974;2022-12-17T08:29:34;92.80;;;51.53;;
23634;SDS011;11994;51.038;16.974;2022-12-17T08:32:19;96.70;;;52.62;;
23634;SDS011;11994;51.038;16.974;2022-12-17T08:35:03;96.12;;;52.15;;
23634;SDS011;11994;51.038;16.974;2022-12-17T08:37:48;102.30;;;53.17;;
23634;SDS011;11994;51.038;16.974;2022-12-17T08:40:33;88.90;;;49.70;;
23634;SDS011;11994;51.038;16.974;2022-12-17T08:43:17;90.50;;;48.63;;
23634;SDS011;11994;51.038;16.974;2022-12-17T08:46:02;97.45;;;53.55;;
23634;SDS011;11994;51.038;16.974;2022-12-17T08:48:47;98.03;;;53.20;;
23634;SDS011;11994;51.038;16.974;2022-12-17T08:51:31;92.92;;;50.80;;
23634;SDS011;11994;51.038;16.974;2022-12-17T08:54:15;97.08;;;51.68;;
23634;SDS011;11994;51.038;16.974;2022-12-17T08:57:00;96.50;;;51.68;;
23634;SDS011;11994;51.038;16.974;2022-12-17T08:59:44;99.30;;;53.10;;
23634;SDS011;11994;51.038;16.974;2022-12-17T09:02:29;94.35;;;51.42;;
23634;SDS011;11994;51.038;16.974;2022-12-17T09:05:13;98.15;;;52.83;;
23634;SDS011;11994;51.038;16.974;2022-12-17T09:07:59;100.33;;;53.87;;
23634;SDS011;11994;51.038;16.974;2022-12-17T09:10:47;99.47;;;52.33;;
23634;SDS011;11994;51.038;16.974;2022-12-17T09:13:31;93.45;;;49.95;;
23634;SDS011;11994;51.038;16.974;2022-12-17T09:16:16;99.62;;;53.48;;
23634;SDS011;11994;51.038;16.974;2022-12-17T09:19:00;103.78;;;54.42;;
23634;SDS011;11994;51.038;16.974;2022-12-17T09:21:45;95.32;;;49.88;;
23634;SDS011;11994;51.038;16.974;2022-12-17T09:24:29;111.37;;;55.67;;
23634;SDS011;11994;51.038;16.974;2022-12-17T09:27:14;96.05;;;51.53;;
23634;SDS011;11994;51.038;16.974;2022-12-17T09:29:58;94.80;;;51.18;;
23634;SDS011;11994;51.038;16.974;2022-12-17T09:32:43;94.40;;;50.85;;
23634;SDS011;11994;51.038;16.974;2022-12-17T09:35:27;98.10;;;50.95;;
23634;SDS011;11994;51.038;16.974;2022-12-17T09:38:12;96.87;;;50.23;;
23634;SDS011;11994;51.038;16.974;2022-12-17T09:40:59;94.40;;;48.08;;
23634;SDS011;11994;51.038;16.974;2022-12-17T09:43:50;98.47;;;51.00;;
23634;SDS011;11994;51.038;16.974;2022-12-17T09:46:44;107.27;;;51.60;;
23634;SDS011;11994;51.038;16.974;2022-12-17T09:49:41;104.78;;;51.55;;
23634;SDS011;11994;51.038;16.974;2022-12-17T09:52:28;101.30;;;53.02;;
23634;SDS011;11994;51.038;16.974;2022-12-17T09:55:20;96.15;;;51.63;;
23634;SDS011;11994;51.038;16.974;2022-12-17T10:01:12;95.35;;;50.88;;
23634;SDS011;11994;51.038;16.974;2022-12-17T10:04:00;104.30;;;53.48;;
23634;SDS011;11994;51.038;16.974;2022-12-17T10:06:46;98.82;;;51.70;;
23634;SDS011;11994;51.038;16.974;2022-12-17T10:09:31;98.47;;;51.83;;
23634;SDS011;11994;51.038;16.974;2022-12-17T10:12:19;104.03;;;53.78;;
23634;SDS011;11994;51.038;16.974;2022-12-17T10:15:04;96.47;;;46.65;;
23634;SDS011;11994;51.038;16.974;2022-12-17T10:17:50;93.15;;;49.42;;
23634;SDS011;11994;51.038;16.974;2022-12-17T10:20:36;105.72;;;52.93;;
23634;SDS011;11994;51.038;16.974;2022-12-17T10:23:31;100.53;;;51.40;;
23634;SDS011;11994;51.038;16.974;2022-12-17T10:26:17;107.55;;;55.10;;
23634;SDS011;11994;51.038;16.974;2022-12-17T10:29:08;99.17;;;52.20;;
23634;SDS011;11994;51.038;16.974;2022-12-17T10:32:08;111.80;;;54.45;;
23634;SDS011;11994;51.038;16.974;2022-12-17T10:35:13;100.33;;;50.43;;
23634;SDS011;11994;51.038;16.974;2022-12-17T10:38:36;101.55;;;53.00;;
23634;SDS011;11994;51.038;16.974;2022-12-17T10:41:29;111.15;;;53.30;;
23634;SDS011;11994;51.038;16.974;2022-12-17T10:47:21;108.25;;;52.43;;
23634;SDS011;11994;51.038;16.974;2022-12-17T10:50:15;111.60;;;54.65;;
23634;SDS011;11994;51.038;16.974;2022-12-17T10:53:14;108.05;;;55.58;;
23634;SDS011;11994;51.038;16.974;2022-12-17T10:56:04;104.27;;;49.63;;
23634;SDS011;11994;51.038;16.974;2022-12-17T10:58:50;110.35;;;53.33;;
23634;SDS011;11994;51.038;16.974;2022-12-17T11:01:41;111.88;;;56.23;;
23634;SDS011;11994;51.038;16.974;2022-12-17T11:07:32;119.45;;;59.25;;
23634;SDS011;11994;51.038;16.974;2022-12-17T11:10:28;119.60;;;58.40;;
23634;SDS011;11994;51.038;16.974;2022-12-17T11:13:13;118.10;;;58.90;;
23634;SDS011;11994;51.038;16.974;2022-12-17T11:16:28;113.20;;;55.25;;
23634;SDS011;11994;51.038;16.974;2022-12-17T11:19:21;117.28;;;58.58;;
23634;SDS011;11994;51.038;16.974;2022-12-17T11:22:06;117.77;;;58.80;;
23634;SDS011;11994;51.038;16.974;2022-12-17T11:25:21;112.92;;;55.67;;
23634;SDS011;11994;51.038;16.974;2022-12-17T11:28:10;117.80;;;59.27;;
23634;SDS011;11994;51.038;16.974;2022-12-17T11:31:03;118.93;;;59.48;;
23634;SDS011;11994;51.038;16.974;2022-12-17T11:34:21;112.35;;;57.67;;
23634;SDS011;11994;51.038;16.974;2022-12-17T11:37:37;118.87;;;55.10;;
23634;SDS011;11994;51.038;16.974;2022-12-17T11:40:42;109.15;;;55.88;;
23634;SDS011;11994;51.038;16.974;2022-12-17T11:55:53;111.15;;;53.95;;
23634;SDS011;11994;51.038;16.974;2022-12-17T11:59:07;105.95;;;52.98;;
23634;SDS011;11994;51.038;16.974;2022-12-17T12:05:18;109.05;;;52.83;;
23634;SDS011;11994;51.038;16.974;2022-12-17T12:17:47;112.62;;;54.93;;
23634;SDS011;11994;51.038;16.974;2022-12-17T12:27:05;105.17;;;52.53;;
23634;SDS011;11994;51.038;16.974;2022-12-17T12:30:24;107.80;;;54.53;;
23634;SDS011;11994;51.038;16.974;2022-12-17T12:39:07;111.62;;;54.27;;
23634;SDS011;11994;51.038;16.974;2022-12-17T12:45:24;110.57;;;55.30;;
23634;SDS011;11994;51.038;16.974;2022-12-17T12:51:09;110.03;;;55.63;;
23634;SDS011;11994;51.038;16.974;2022-12-17T12:54:25;107.83;;;54.88;;
23634;SDS011;11994;51.038;16.974;2022-12-17T12:57:36;119.17;;;57.75;;
23634;SDS011;11994;51.038;16.974;2022-12-17T13:17:35;109.15;;;54.03;;
23634;SDS011;11994;51.038;16.974;2022-12-17T13:25:42;119.13;;;60.90;;
23634;SDS011;11994;51.038;16.974;2022-12-17T13:28:24;107.95;;;54.98;;
23634;SDS011;11994;51.038;16.974;2022-12-17T13:31:00;118.53;;;57.78;;
23634;SDS011;11994;51.038;16.974;2022-12-17T13:33:41;103.27;;;52.17;;
23634;SDS011;11994;51.038;16.974;2022-12-17T13:39:06;111.30;;;55.45;;
23634;SDS011;11994;51.038;16.974;2022-12-17T13:41:51;110.55;;;54.60;;
23634;SDS011;11994;51.038;16.974;2022-12-17T13:44:25;105.90;;;52.98;;
23634;SDS011;11994;51.038;16.974;2022-12-17T13:46:53;111.25;;;55.17;;
23634;SDS011;11994;51.038;16.974;2022-12-17T13:49:23;111.32;;;54.88;;
23634;SDS011;11994;51.038;16.974;2022-12-17T13:52:05;111.77;;;54.88;;
23634;SDS011;11994;51.038;16.974;2022-12-17T13:54:42;101.50;;;53.38;;
23634;SDS011;11994;51.038;16.974;2022-12-17T13:57:11;99.60;;;50.80;;
23634;SDS011;11994;51.038;16.974;2022-12-17T13:59:58;105.85;;;54.10;;
23634;SDS011;11994;51.038;16.974;2022-12-17T14:04:54;117.20;;;59.27;;
23634;SDS011;11994;51.038;16.974;2022-12-17T14:07:23;112.35;;;55.98;;
23634;SDS011;11994;51.038;16.974;2022-12-17T14:09:51;117.42;;;59.40;;
23634;SDS011;11994;51.038;16.974;2022-12-17T14:12:18;120.72;;;59.10;;
23634;SDS011;11994;51.038;16.974;2022-12-17T14:14:51;122.67;;;60.38;;
23634;SDS011;11994;51.038;16.974;2022-12-17T14:17:56;121.42;;;61.77;;
23634;SDS011;11994;51.038;16.974;2022-12-17T14:20:10;131.70;;;62.80;;
23634;SDS011;11994;51.038;16.974;2022-12-17T14:22:44;122.25;;;59.55;;
23634;SDS011;11994;51.038;16.974;2022-12-17T14:25:21;120.53;;;56.83;;
23634;SDS011;11994;51.038;16.974;2022-12-17T14:27:55;108.33;;;56.53;;
23634;SDS011;11994;51.038;16.974;2022-12-17T14:33:23;116.08;;;57.60;;
23634;SDS011;11994;51.038;16.974;2022-12-17T14:35:55;117.35;;;56.68;;
23634;SDS011;11994;51.038;16.974;2022-12-17T14:38:24;112.70;;;55.50;;
23634;SDS011;11994;51.038;16.974;2022-12-17T14:40:51;120.40;;;57.10;;
23634;SDS011;11994;51.038;16.974;2022-12-17T14:43:22;120.82;;;55.95;;
23634;SDS011;11994;51.038;16.974;2022-12-17T14:45:56;115.95;;;54.88;;
23634;SDS011;11994;51.038;16.974;2022-12-17T14:48:43;109.80;;;53.80;;
23634;SDS011;11994;51.038;16.974;2022-12-17T14:51:35;107.92;;;52.25;;
23634;SDS011;11994;51.038;16.974;2022-12-17T14:56:57;107.47;;;50.92;;
23634;SDS011;11994;51.038;16.974;2022-12-17T15:02:02;100.18;;;49.38;;
23634;SDS011;11994;51.038;16.974;2022-12-17T15:04:51;106.92;;;52.10;;
23634;SDS011;11994;51.038;16.974;2022-12-17T15:07:23;98.40;;;49.08;;
23634;SDS011;11994;51.038;16.974;2022-12-17T15:09:52;103.27;;;52.17;;
23634;SDS011;11994;51.038;16.974;2022-12-17T15:12:20;108.95;;;52.15;;
23634;SDS011;11994;51.038;16.974;2022-12-17T15:14:47;102.17;;;50.95;;
23634;SDS011;11994;51.038;16.974;2022-12-17T15:17:14;97.20;;;48.33;;
23634;SDS011;11994;51.038;16.974;2022-12-17T15:19:41;103.27;;;48.38;;
23634;SDS011;11994;51.038;16.974;2022-12-17T15:22:13;98.60;;;49.93;;
23634;SDS011;11994;51.038;16.974;2022-12-17T15:24:42;105.20;;;50.80;;
23634;SDS011;11994;51.038;16.974;2022-12-17T15:27:15;98.03;;;49.60;;
23634;SDS011;11994;51.038;16.974;2022-12-17T15:29:42;102.12;;;50.23;;
23634;SDS011;11994;51.038;16.974;2022-12-17T15:32:13;103.40;;;50.20;;
23634;SDS011;11994;51.038;16.974;2022-12-17T15:34:45;101.12;;;49.13;;
23634;SDS011;11994;51.038;16.974;2022-12-17T15:37:12;94.90;;;48.17;;
23634;SDS011;11994;51.038;16.974;2022-12-17T15:39:39;100.58;;;48.90;;
23634;SDS011;11994;51.038;16.974;2022-12-17T15:42:05;93.97;;;47.48;;
23634;SDS011;11994;51.038;16.974;2022-12-17T15:44:51;90.77;;;45.73;;
23634;SDS011;11994;51.038;16.974;2022-12-17T15:47:18;92.40;;;47.13;;
23634;SDS011;11994;51.038;16.974;2022-12-17T15:49:44;92.82;;;47.88;;
23634;SDS011;11994;51.038;16.974;2022-12-17T15:52:10;93.22;;;47.25;;
23634;SDS011;11994;51.038;16.974;2022-12-17T15:54:43;90.00;;;44.58;;
23634;SDS011;11994;51.038;16.974;2022-12-17T15:57:07;88.65;;;44.67;;
23634;SDS011;11994;51.038;16.974;2022-12-17T15:59:33;91.02;;;44.38;;
23634;SDS011;11994;51.038;16.974;2022-12-17T16:01:59;89.47;;;43.87;;
23634;SDS011;11994;51.038;16.974;2022-12-17T16:04:25;86.02;;;44.67;;
23634;SDS011;11994;51.038;16.974;2022-12-17T16:06:52;87.02;;;43.25;;
23634;SDS011;11994;51.038;16.974;2022-12-17T16:09:18;83.52;;;43.45;;
23634;SDS011;11994;51.038;16.974;2022-12-17T16:11:46;81.67;;;40.48;;
23634;SDS011;11994;51.038;16.974;2022-12-17T16:14:12;82.85;;;41.00;;
23634;SDS011;11994;51.038;16.974;2022-12-17T16:16:38;79.10;;;38.88;;
23634;SDS011;11994;51.038;16.974;2022-12-17T16:19:04;74.77;;;38.78;;
23634;SDS011;11994;51.038;16.974;2022-12-17T16:21:30;79.30;;;37.50;;
23634;SDS011;11994;51.038;16.974;2022-12-17T16:23:56;78.37;;;39.67;;
23634;SDS011;11994;51.038;16.974;2022-12-17T16:26:22;74.70;;;39.27;;
23634;SDS011;11994;51.038;16.974;2022-12-17T16:28:48;77.53;;;37.90;;
23634;SDS011;11994;51.038;16.974;2022-12-17T16:31:14;82.93;;;39.57;;
23634;SDS011;11994;51.038;16.974;2022-12-17T16:33:41;84.42;;;40.95;;
23634;SDS011;11994;51.038;16.974;2022-12-17T16:36:10;86.20;;;41.48;;
23634;SDS011;11994;51.038;16.974;2022-12-17T16:38:43;79.17;;;39.08;;
23634;SDS011;11994;51.038;16.974;2022-12-17T16:41:15;76.15;;;38.50;;
23634;SDS011;11994;51.038;16.974;2022-12-17T16:43:41;76.70;;;39.38;;
23634;SDS011;11994;51.038;16.974;2022-12-17T16:46:31;79.92;;;39.48;;
23634;SDS011;11994;51.038;16.974;2022-12-17T16:48:55;81.37;;;40.38;;
23634;SDS011;11994;51.038;16.974;2022-12-17T16:51:24;80.20;;;39.80;;
23634;SDS011;11994;51.038;16.974;2022-12-17T16:53:52;78.90;;;38.63;;
23634;SDS011;11994;51.038;16.974;2022-12-17T16:56:19;78.15;;;37.83;;
23634;SDS011;11994;51.038;16.974;2022-12-17T16:58:48;75.17;;;37.93;;
23634;SDS011;11994;51.038;16.974;2022-12-17T17:01:25;75.97;;;39.25;;
23634;SDS011;11994;51.038;16.974;2022-12-17T17:03:53;79.00;;;38.33;;
23634;SDS011;11994;51.038;16.974;2022-12-17T17:06:21;74.72;;;36.95;;
23634;SDS011;11994;51.038;16.974;2022-12-17T17:08:48;70.95;;;36.17;;